Airfield :
LOGIN :

Register | Disclaimer

   EN    FR    IT 

 










Legend :    VFR   Marginal VFR   IFR   Intensive IFR   Very Intensive IFR
Visi :
Ceiling :
>= 8 km
>= 3000ft
5 to 8 km
1000 to 3000 ft
1500m to 5 km
500 to 1000 ft
800 to 1500m
200 to 500 ft
< 800m
< 200 ft
Symbols :   Thunderstorms  Fog  Heavy snow  Heavy precipitations  Wind > 20 kt
SIGMETs :     Misc.  Thunderstorms  Icing  Turbulence  Mountain Waves  Volcanic Ashes






- Airport Elevation : 87 ft
- IATA code : BEY


OLBA - Rafic Hariri Int.

CURRENT METAR :
  • 200900Z 29003KT 250V350 8000 BKN030 15/10 Q1023 NOSIG

EXPIRED METARs :
  • 200800Z 16006KT 130V200 8000 BKN030 14/10 Q1023 NOSIG
  • 200700Z 15010KT 5000 TSRA FEW020 BKN023 13/08 Q1023 RERA NOSIG

TAF TAF OLBA
Valid from the 20 at 06:00 until the 21 at 12:00 UTC


200400Z 2006/2112 18012KT 7000 -RA BKN025
TEMPO 2006/2012 5000 TSRA FEW020CB OVC025
BECMG 2012/2015 24014KT
TEMPO 2012/2109 4000 TSSHRA FEW018CB OVC022
BECMG 2109/2112 26010KT



MET'MAP, your aeronautical weather chart ! - Copyright ORBIFLY December 2007 - Disclaimer

ORBIFLY MET'MAP TEAM :

Programming & Development : Alexandra Zaïnal
Concept & original design : Baudouin d'Aumeries
Assistance for programming : Marc-Olivier Méhu
Technical & hardware support : Manuel Goepfert

Contact : metmap@orbifly.com




SOURCES & CREDITS :

   NOAA